createdAt,value
2022-10-27T00:02:39.657Z,93760.59
2022-10-27T00:05:23.191Z,93751.09
2022-10-27T00:08:06.585Z,93752.75
2022-10-27T00:10:57.836Z,93755.44
2022-10-27T00:13:42.098Z,93759.66
2022-10-27T00:16:25.253Z,93763.06
2022-10-27T00:19:08.103Z,93757.91
2022-10-27T00:21:51.807Z,93752.59
2022-10-27T00:24:34.710Z,93755.84
2022-10-27T00:27:17.633Z,93753.94
2022-10-27T00:30:01.856Z,93750.22
2022-10-27T00:32:46.012Z,93759.59
2022-10-27T00:35:28.852Z,93759.31
2022-10-27T00:38:11.699Z,93754.16
2022-10-27T00:40:54.611Z,93760.00
2022-10-27T00:43:39.718Z,93758.22
2022-10-27T00:46:32.539Z,93766.94
2022-10-27T00:49:18.668Z,93765.97
2022-10-27T00:52:05.356Z,93774.69
2022-10-27T00:54:48.883Z,93777.28
2022-10-27T00:57:33.560Z,93776.44
2022-10-27T01:00:17.447Z,93783.22
2022-10-27T01:03:01.776Z,93785.81
2022-10-27T01:05:45.911Z,93780.50
2022-10-27T01:08:28.808Z,93779.53
2022-10-27T01:11:11.696Z,93773.56
2022-10-27T01:13:54.868Z,93771.94
2022-10-27T01:16:46.696Z,93779.53
2022-10-27T01:19:52.541Z,93781.31
2022-10-27T01:22:43.142Z,93776.16
2022-10-27T01:26:07.410Z,93775.31
2022-10-27T01:29:22.500Z,93782.28
2022-10-27T01:32:25.615Z,93773.56
2022-10-27T01:35:15.907Z,93782.28
2022-10-27T01:38:07.534Z,93778.88
2022-10-27T01:41:01.123Z,93779.84
2022-10-27T01:43:46.711Z,93779.84
2022-10-27T01:46:30.018Z,93779.84
2022-10-27T01:49:14.258Z,93785.00
2022-10-27T01:52:05.664Z,93785.81
2022-10-27T01:54:48.539Z,93781.59
2022-10-27T01:57:43.277Z,93782.44
2022-10-27T02:00:26.182Z,93788.41
2022-10-27T02:03:14.667Z,93786.59
2022-10-27T02:06:08.615Z,93777.13
2022-10-27T02:08:55.973Z,93787.44
2022-10-27T02:11:42.120Z,93785.97
2022-10-27T02:14:26.087Z,93782.72
2022-10-27T02:17:12.273Z,93777.69
2022-10-27T02:19:58.023Z,93770.09
2022-10-27T02:22:46.220Z,93778.00
2022-10-27T02:25:40.911Z,93773.78
2022-10-27T02:28:29.254Z,93777.31
2022-10-27T02:31:14.684Z,93782.47
2022-10-27T02:33:59.033Z,93775.69
2022-10-27T02:36:42.056Z,93782.59
2022-10-27T02:39:26.483Z,93780.03
2022-10-27T02:42:09.333Z,93784.38
2022-10-27T02:44:52.267Z,93788.72
2022-10-27T02:47:35.071Z,93793.09
2022-10-27T02:50:17.949Z,93790.50
2022-10-27T02:53:00.822Z,93793.09
2022-10-27T02:55:45.096Z,93791.31
2022-10-27T02:58:27.905Z,93793.88
2022-10-27T03:01:10.988Z,93791.31
2022-10-27T03:03:53.919Z,93801.63
2022-10-27T03:06:36.787Z,93799.72
2022-10-27T03:09:19.605Z,93800.41
2022-10-27T03:12:03.993Z,93801.06
2022-10-27T03:14:46.826Z,93805.28
2022-10-27T03:17:29.707Z,93798.50
2022-10-27T03:20:13.394Z,93795.22
2022-10-27T03:22:56.428Z,93798.91
2022-10-27T03:25:47.322Z,93798.09
2022-10-27T03:28:35.377Z,93805.03
2022-10-27T03:31:18.214Z,93798.25
2022-10-27T03:34:01.154Z,93802.47
2022-10-27T03:36:44.000Z,93805.16
2022-10-27T03:39:27.031Z,93805.31
2022-10-27T03:42:10.050Z,93802.06
2022-10-27T03:44:54.231Z,93802.22
2022-10-27T03:47:37.503Z,93795.44
2022-10-27T03:50:20.295Z,93812.66
2022-10-27T03:53:03.846Z,93797.34
2022-10-27T03:55:49.026Z,93808.34
2022-10-27T03:58:31.940Z,93805.59
2022-10-27T04:01:16.392Z,93806.44
2022-10-27T04:03:59.329Z,93812.38
2022-10-27T04:06:42.279Z,93811.28
2022-10-27T04:09:25.092Z,93810.31
2022-10-27T04:12:08.348Z,93806.94
2022-10-27T04:14:51.177Z,93807.06
2022-10-27T04:17:35.441Z,93803.00
2022-10-27T04:20:18.327Z,93802.22
2022-10-27T04:23:01.401Z,93800.72
2022-10-27T04:25:45.420Z,93804.41
2022-10-27T04:28:28.295Z,93798.56
2022-10-27T04:31:11.191Z,93801.16
2022-10-27T04:33:55.493Z,93804.84
2022-10-27T04:36:38.348Z,93810.00
2022-10-27T04:39:21.227Z,93808.38
2022-10-27T04:42:04.045Z,93807.69
2022-10-27T04:44:47.474Z,93807.03
2022-10-27T04:47:30.338Z,93803.72
2022-10-27T04:50:15.642Z,93812.44
2022-10-27T04:53:00.127Z,93810.78
2022-10-27T04:55:42.988Z,93813.53
2022-10-27T04:58:25.891Z,93809.31
2022-10-27T05:01:09.541Z,93814.63
2022-10-27T05:03:52.468Z,93814.09
2022-10-27T05:06:36.701Z,93817.78
2022-10-27T05:09:19.555Z,93812.75
2022-10-27T05:12:02.482Z,93813.03
2022-10-27T05:14:45.303Z,93822.53
2022-10-27T05:17:28.214Z,93823.63
2022-10-27T05:20:11.740Z,93816.84
2022-10-27T05:22:56.064Z,93822.16
2022-10-27T05:25:39.020Z,93832.47
2022-10-27T05:28:22.509Z,93828.94
2022-10-27T05:31:05.766Z,93828.09
2022-10-27T05:33:48.718Z,93835.16
2022-10-27T05:36:31.545Z,93842.09
2022-10-27T05:39:15.809Z,93839.66
2022-10-27T05:41:58.674Z,93842.22
2022-10-27T05:44:41.557Z,93835.44
2022-10-27T05:47:24.354Z,93840.59
2022-10-27T05:50:08.036Z,93837.22
2022-10-27T05:52:51.125Z,93842.22
2022-10-27T05:55:36.493Z,93843.84
2022-10-27T05:58:19.418Z,93850.66
2022-10-27T06:01:02.305Z,93843.59
2022-10-27T06:03:45.265Z,93852.94
2022-10-27T06:06:28.396Z,93852.69
2022-10-27T06:09:11.262Z,93856.06
2022-10-27T06:11:55.578Z,93864.63
2022-10-27T06:14:38.464Z,93861.78
2022-10-27T06:17:21.344Z,93866.78
2022-10-27T06:20:04.819Z,93865.84
2022-10-27T06:22:48.323Z,93866.63
2022-10-27T06:25:31.316Z,93867.59
2022-10-27T06:28:15.616Z,93869.22
2022-10-27T06:30:58.947Z,93870.84
2022-10-27T06:33:41.800Z,93877.63
2022-10-27T06:36:25.276Z,93875.06
2022-10-27T06:39:08.113Z,93880.91
2022-10-27T06:41:51.005Z,93879.00
2022-10-27T06:44:40.203Z,93885.63
2022-10-27T06:47:23.070Z,93890.53
2022-10-27T06:50:07.470Z,93893.94
2022-10-27T06:52:51.525Z,93894.75
2022-10-27T06:55:34.946Z,93895.16
2022-10-27T06:58:17.861Z,93895.84
2022-10-27T07:01:02.388Z,93898.13
2022-10-27T07:03:45.590Z,93899.47
2022-10-27T07:06:28.410Z,93901.78
2022-10-27T07:09:11.438Z,93901.50
2022-10-27T07:11:54.310Z,93901.22
2022-10-27T07:14:37.185Z,93899.31
2022-10-27T07:20:10.154Z,93902.16
2022-10-27T07:22:53.378Z,93906.22
2022-10-27T07:25:36.761Z,93915.44
2022-10-27T07:28:19.697Z,93914.34
2022-10-27T07:31:02.539Z,93918.94
2022-10-27T07:33:46.789Z,93917.72
2022-10-27T07:36:29.627Z,93923.13
2022-10-27T07:39:12.490Z,93927.72
2022-10-27T07:41:55.338Z,93926.34
2022-10-27T07:44:38.275Z,93927.53
2022-10-27T07:47:21.142Z,93926.28
2022-10-27T07:50:06.553Z,93929.13
2022-10-27T07:52:51.605Z,93939.69
2022-10-27T07:55:36.656Z,93939.94
2022-10-27T07:58:19.770Z,93936.50
2022-10-27T08:01:04.320Z,93950.00
2022-10-27T08:03:51.116Z,93951.28
2022-10-27T08:06:35.641Z,93951.50
2022-10-27T08:09:19.979Z,93949.22
2022-10-27T08:12:03.050Z,93952.22
2022-10-27T08:14:45.873Z,93956.72
2022-10-27T08:17:30.186Z,93953.75
2022-10-27T08:20:13.124Z,93957.72
2022-10-27T08:22:58.442Z,93966.72
2022-10-27T08:25:42.041Z,93958.84
2022-10-27T08:28:25.168Z,93953.41
2022-10-27T08:31:08.645Z,93953.13
2022-10-27T08:33:51.462Z,93951.59
2022-10-27T08:36:39.139Z,93954.78
2022-10-27T08:39:23.327Z,93955.94
2022-10-27T08:42:13.598Z,93958.41
2022-10-27T08:45:02.676Z,93968.97
2022-10-27T08:47:45.746Z,93965.44
2022-10-27T08:50:31.564Z,93963.69
2022-10-27T08:53:19.768Z,93956.72
2022-10-27T08:56:10.338Z,93956.09
2022-10-27T08:58:53.354Z,93961.94
2022-10-27T09:01:46.001Z,93955.16
2022-10-27T09:04:48.708Z,93955.13
2022-10-27T09:07:40.318Z,93958.69
2022-10-27T09:10:41.240Z,93953.97
2022-10-27T09:13:43.262Z,93950.69
2022-10-27T09:16:34.197Z,93954.59
2022-10-27T09:19:23.696Z,93956.34
2022-10-27T09:22:13.431Z,93951.91
2022-10-27T09:25:00.740Z,93954.91
2022-10-27T09:27:45.149Z,93953.88
2022-10-27T09:30:36.110Z,93955.41
2022-10-27T09:33:23.856Z,93948.50
2022-10-27T09:36:15.341Z,93947.59
2022-10-27T09:38:58.256Z,93947.88
2022-10-27T09:41:41.318Z,93945.22
2022-10-27T09:44:26.759Z,93950.44
2022-10-27T09:47:11.477Z,93947.22
2022-10-27T09:49:54.345Z,93945.66
2022-10-27T09:52:42.718Z,93942.47
2022-10-27T09:55:49.971Z,93951.03
2022-10-27T09:58:33.043Z,93946.72
2022-10-27T10:01:15.951Z,93953.00
2022-10-27T10:04:10.383Z,93947.78
2022-10-27T10:06:57.163Z,93934.06
2022-10-27T10:09:40.501Z,93940.38
2022-10-27T10:12:25.048Z,93931.19
2022-10-27T10:15:21.083Z,93928.31
2022-10-27T10:18:05.961Z,93930.41
2022-10-27T10:20:57.710Z,93937.41
2022-10-27T10:23:53.314Z,93941.59
2022-10-27T10:26:36.229Z,93935.25
2022-10-27T10:29:28.272Z,93935.41
2022-10-27T10:32:14.987Z,93930.53
2022-10-27T10:35:00.638Z,93927.91
2022-10-27T10:37:46.657Z,93930.06
2022-10-27T10:40:30.802Z,93923.53
2022-10-27T10:43:15.994Z,93926.50
2022-10-27T10:45:59.693Z,93925.00
2022-10-27T10:48:47.345Z,93926.28
2022-10-27T10:51:32.862Z,93918.81
2022-10-27T10:54:22.759Z,93920.06
2022-10-27T10:57:06.202Z,93919.41
2022-10-27T10:59:53.517Z,93924.56
2022-10-27T11:02:36.417Z,93916.63
2022-10-27T11:08:21.566Z,93913.22
2022-10-27T11:11:12.344Z,93903.81
2022-10-27T11:14:00.188Z,93903.69
2022-10-27T11:16:48.395Z,93904.94
2022-10-27T11:19:38.980Z,93903.03
2022-10-27T11:22:23.168Z,93905.19
2022-10-27T11:25:08.674Z,93899.97
2022-10-27T11:28:04.095Z,93903.97
2022-10-27T11:30:54.591Z,93905.88
2022-10-27T11:33:47.332Z,93899.34
2022-10-27T11:36:37.508Z,93899.81
2022-10-27T11:39:26.480Z,93900.00
2022-10-27T11:42:19.693Z,93897.22
2022-10-27T11:45:12.512Z,93889.19
2022-10-27T11:48:00.769Z,93902.66
2022-10-27T11:50:49.942Z,93894.47
2022-10-27T11:53:36.292Z,93893.69
2022-10-27T11:56:36.560Z,93893.34
2022-10-27T11:59:23.969Z,93893.03
2022-10-27T12:02:27.374Z,93892.78
2022-10-27T12:05:14.027Z,93890.59
2022-10-27T12:08:08.811Z,93887.97
2022-10-27T12:11:06.475Z,93882.44
2022-10-27T12:13:56.824Z,93875.41
2022-10-27T12:16:46.429Z,93883.28
2022-10-27T12:19:35.783Z,93891.09
2022-10-27T12:22:23.923Z,93876.22
2022-10-27T12:25:12.717Z,93876.06
2022-10-27T12:27:58.385Z,93881.72
2022-10-27T12:30:46.058Z,93881.50
2022-10-27T12:33:35.522Z,93873.84
2022-10-27T12:36:26.717Z,93871.25
2022-10-27T12:39:20.579Z,93872.06
2022-10-27T12:42:10.754Z,93864.63
2022-10-27T12:45:02.349Z,93861.97
2022-10-27T12:47:56.654Z,93855.72
2022-10-27T12:50:45.522Z,93847.84
2022-10-27T12:53:43.784Z,93849.47
2022-10-27T12:56:32.209Z,93850.47
2022-10-27T12:59:25.290Z,93845.84
2022-10-27T13:02:12.462Z,93848.63
2022-10-27T13:05:33.759Z,93853.47
2022-10-27T13:08:42.701Z,93857.91
2022-10-27T13:11:52.441Z,93854.47
2022-10-27T13:15:11.144Z,93848.84
2022-10-27T13:18:03.111Z,93841.78
2022-10-27T13:20:53.492Z,93841.56
2022-10-27T13:23:46.181Z,93841.97
2022-10-27T13:26:34.604Z,93840.38
2022-10-27T13:29:29.480Z,93841.19
2022-10-27T13:32:39.573Z,93839.75
2022-10-27T13:35:33.945Z,93840.19
2022-10-27T13:38:26.739Z,93831.13
2022-10-27T13:41:10.970Z,93832.31
2022-10-27T13:43:59.675Z,93831.50
2022-10-27T13:47:16.194Z,93831.13
2022-10-27T13:50:00.645Z,93830.31
2022-10-27T13:52:43.489Z,93838.78
2022-10-27T13:55:34.918Z,93838.56
2022-10-27T13:58:33.590Z,93834.97
2022-10-27T14:01:25.705Z,93839.38
2022-10-27T14:04:40.167Z,93845.03
2022-10-27T14:07:26.299Z,93840.97
2022-10-27T14:10:14.613Z,93842.94
2022-10-27T14:12:59.191Z,93844.53
2022-10-27T14:15:43.490Z,93839.69
2022-10-27T14:18:30.753Z,93839.06
2022-10-27T14:21:19.147Z,93838.22
2022-10-27T14:24:08.265Z,93831.53
2022-10-27T14:26:58.298Z,93839.16
2022-10-27T14:29:41.163Z,93837.66
2022-10-27T14:32:27.577Z,93833.00
2022-10-27T14:35:22.562Z,93837.97
2022-10-27T14:38:05.481Z,93839.38
2022-10-27T14:40:49.168Z,93836.13
2022-10-27T14:43:35.372Z,93835.31
2022-10-27T14:46:21.951Z,93844.78
2022-10-27T14:49:08.314Z,93850.63
2022-10-27T14:51:51.405Z,93848.22
2022-10-27T14:54:35.024Z,93852.44
2022-10-27T14:57:38.744Z,93848.63
2022-10-27T15:00:24.589Z,93851.47
2022-10-27T15:03:09.975Z,93852.47
2022-10-27T15:05:54.203Z,93853.03
2022-10-27T15:08:37.095Z,93858.22
2022-10-27T15:11:23.532Z,93855.78
2022-10-27T15:14:06.505Z,93856.50
2022-10-27T15:16:49.503Z,93851.59
2022-10-27T15:19:32.496Z,93849.94
2022-10-27T15:22:18.845Z,93851.50
2022-10-27T15:25:02.490Z,93850.19
2022-10-27T15:27:46.275Z,93852.06
2022-10-27T15:30:29.530Z,93847.31
2022-10-27T15:33:33.611Z,93849.09
2022-10-27T15:36:24.326Z,93850.84
2022-10-27T15:39:12.326Z,93844.59
2022-10-27T15:41:55.261Z,93848.47
2022-10-27T15:44:38.239Z,93845.88
2022-10-27T15:47:42.254Z,93847.03
2022-10-27T15:50:27.454Z,93845.59
2022-10-27T15:53:16.625Z,93843.00
2022-10-27T15:56:03.227Z,93845.97
2022-10-27T15:59:09.816Z,93844.66
2022-10-27T16:01:56.227Z,93847.31
2022-10-27T16:04:40.942Z,93846.56
2022-10-27T16:07:33.791Z,93840.28
2022-10-27T16:10:16.703Z,93841.34
2022-10-27T16:13:00.889Z,93846.41
2022-10-27T16:15:45.940Z,93838.13
2022-10-27T16:18:28.836Z,93837.84
2022-10-27T16:21:20.310Z,93847.00
2022-10-27T16:24:13.820Z,93845.06
2022-10-27T16:26:56.872Z,93834.56
2022-10-27T16:29:41.795Z,93840.09
2022-10-27T16:32:24.661Z,93839.66
2022-10-27T16:35:08.003Z,93835.75
2022-10-27T16:37:50.871Z,93837.06
2022-10-27T16:40:38.193Z,93835.81
2022-10-27T16:43:27.170Z,93832.91
2022-10-27T16:46:11.381Z,93832.44
2022-10-27T16:48:54.363Z,93833.09
2022-10-27T16:51:37.190Z,93832.63
2022-10-27T16:54:20.141Z,93831.53
2022-10-27T16:57:03.122Z,93827.81
2022-10-27T16:59:45.969Z,93835.13
2022-10-27T17:02:30.327Z,93834.81
2022-10-27T17:05:13.186Z,93836.97
2022-10-27T17:07:56.102Z,93841.88
2022-10-27T17:10:39.024Z,93842.34
2022-10-27T17:13:22.321Z,93843.84
2022-10-27T17:16:06.578Z,93844.19
2022-10-27T17:18:50.814Z,93836.25
2022-10-27T17:21:35.111Z,93837.53
2022-10-27T17:24:18.019Z,93839.22
2022-10-27T17:27:00.942Z,93840.69
2022-10-27T17:29:43.825Z,93836.78
2022-10-27T17:32:26.698Z,93848.16
2022-10-27T17:35:11.163Z,93846.72
2022-10-27T17:37:54.250Z,93845.88
2022-10-27T17:40:38.866Z,93855.63
2022-10-27T17:43:22.119Z,93854.19
2022-10-27T17:46:06.895Z,93857.94
2022-10-27T17:48:50.677Z,93866.84
2022-10-27T17:51:35.080Z,93867.19
2022-10-27T17:54:18.051Z,93858.09
2022-10-27T17:57:00.917Z,93860.84
2022-10-27T17:59:44.082Z,93865.56
2022-10-27T18:02:27.551Z,93864.09
2022-10-27T18:05:10.679Z,93869.28
2022-10-27T18:07:55.059Z,93861.63
2022-10-27T18:10:38.330Z,93865.38
2022-10-27T18:13:21.224Z,93868.94
2022-10-27T18:16:08.413Z,93870.91
2022-10-27T18:18:52.285Z,93867.81
2022-10-27T18:21:37.695Z,93864.56
2022-10-27T18:24:22.458Z,93873.34
2022-10-27T18:27:05.253Z,93873.66
2022-10-27T18:29:48.193Z,93876.44
2022-10-27T18:32:31.016Z,93866.53
2022-10-27T18:35:13.964Z,93874.63
2022-10-27T18:37:56.872Z,93868.97
2022-10-27T18:40:41.108Z,93868.31
2022-10-27T18:43:24.128Z,93879.81
2022-10-27T18:46:08.959Z,93873.97
2022-10-27T18:48:52.467Z,93875.75
2022-10-27T18:51:37.369Z,93869.91
2022-10-27T18:54:20.759Z,93870.25
2022-10-27T18:57:05.075Z,93859.22
2022-10-27T18:59:47.952Z,93864.56
2022-10-27T19:02:30.883Z,93868.00
2022-10-27T19:05:13.877Z,93873.31
2022-10-27T19:07:56.751Z,93875.25
2022-10-27T19:10:39.761Z,93877.38
2022-10-27T19:13:24.046Z,93866.34
2022-10-27T19:16:08.761Z,93870.88
2022-10-27T19:18:51.659Z,93876.06
2022-10-27T19:21:34.963Z,93878.97
2022-10-27T19:24:18.057Z,93863.56
2022-10-27T19:27:00.997Z,93868.94
2022-10-27T19:29:46.175Z,93871.66
2022-10-27T19:32:29.053Z,93876.19
2022-10-27T19:35:12.008Z,93878.97
2022-10-27T19:37:55.281Z,93876.53
2022-10-27T19:40:38.449Z,93881.22
2022-10-27T19:43:23.618Z,93876.84
2022-10-27T19:46:08.914Z,93883.16
2022-10-27T19:48:52.514Z,93874.72
2022-10-27T19:51:37.153Z,93877.31
2022-10-27T19:54:21.219Z,93880.25
2022-10-27T19:57:04.167Z,93879.41
2022-10-27T19:59:47.105Z,93879.59
2022-10-27T20:02:32.485Z,93881.34
2022-10-27T20:05:15.623Z,93881.53
2022-10-27T20:07:58.796Z,93880.88
2022-10-27T20:10:41.635Z,93875.84
2022-10-27T20:13:24.531Z,93876.97
2022-10-27T20:16:08.104Z,93890.09
2022-10-27T20:18:52.812Z,93887.63
2022-10-27T20:21:35.742Z,93884.41
2022-10-27T20:24:20.449Z,93889.59
2022-10-27T20:27:03.129Z,93886.34
2022-10-27T20:29:46.031Z,93884.56
2022-10-27T20:32:32.127Z,93878.72
2022-10-27T20:35:16.485Z,93870.13
2022-10-27T20:37:59.374Z,93879.69
2022-10-27T20:40:43.023Z,93875.63
2022-10-27T20:43:26.002Z,93876.59
2022-10-27T20:46:09.751Z,93876.44
2022-10-27T20:48:53.248Z,93875.63
2022-10-27T20:51:37.599Z,93879.34
2022-10-27T20:54:20.462Z,93876.91
2022-10-27T20:57:03.422Z,93873.66
2022-10-27T20:59:46.276Z,93885.81
2022-10-27T21:02:29.182Z,93885.00
2022-10-27T21:05:12.144Z,93877.38
2022-10-27T21:07:56.379Z,93879.31
2022-10-27T21:10:41.853Z,93882.88
2022-10-27T21:13:24.819Z,93881.25
2022-10-27T21:16:08.242Z,93880.56
2022-10-27T21:18:52.519Z,93880.72
2022-10-27T21:21:35.816Z,93881.69
2022-10-27T21:24:20.022Z,93882.66
2022-10-27T21:27:02.916Z,93879.41
2022-10-27T21:29:45.857Z,93879.56
2022-10-27T21:32:28.733Z,93876.31
2022-10-27T21:35:11.612Z,93880.03
2022-10-27T21:37:55.693Z,93881.00
2022-10-27T21:40:39.875Z,93864.63
2022-10-27T21:43:22.759Z,93869.03
2022-10-27T21:46:06.007Z,93869.03
2022-10-27T21:48:49.369Z,93872.56
2022-10-27T21:51:32.533Z,93868.19
2022-10-27T21:54:16.235Z,93863.97
2022-10-27T21:57:00.475Z,93865.78
2022-10-27T21:59:43.334Z,93865.91
2022-10-27T22:02:26.271Z,93864.16
2022-10-27T22:05:09.799Z,93864.31
2022-10-27T22:07:52.975Z,93866.91
2022-10-27T22:10:36.213Z,93855.88
2022-10-27T22:13:21.283Z,93855.88
2022-10-27T22:16:04.883Z,93854.38
2022-10-27T22:18:48.604Z,93860.22
2022-10-27T22:21:34.414Z,93854.25
2022-10-27T22:24:17.854Z,93854.91
2022-10-27T22:27:00.772Z,93851.66
2022-10-27T22:29:45.190Z,93859.56
2022-10-27T22:32:29.706Z,93855.34
2022-10-27T22:35:12.708Z,93853.59
2022-10-27T22:37:55.794Z,93853.44
2022-10-27T22:40:38.895Z,93856.84
2022-10-27T22:43:21.810Z,93848.09
2022-10-27T22:46:07.607Z,93851.50
2022-10-27T22:48:50.911Z,93844.56
2022-10-27T22:51:33.833Z,93845.34
2022-10-27T22:54:16.748Z,93840.00
2022-10-27T22:56:59.618Z,93842.59
2022-10-27T22:59:42.518Z,93839.88
2022-10-27T23:02:26.863Z,93838.06
2022-10-27T23:05:09.805Z,93838.91
2022-10-27T23:07:52.676Z,93837.09
2022-10-27T23:10:35.502Z,93840.66
2022-10-27T23:13:18.380Z,93837.28
2022-10-27T23:16:02.852Z,93839.03
2022-10-27T23:18:47.185Z,93843.59
2022-10-27T23:21:30.815Z,93841.97
2022-10-27T23:24:15.257Z,93834.63
2022-10-27T23:26:58.079Z,93836.91
2022-10-27T23:29:40.994Z,93840.44
2022-10-27T23:32:23.961Z,93843.19
2022-10-27T23:35:09.712Z,93843.34
2022-10-27T23:37:53.106Z,93838.34
2022-10-27T23:40:36.318Z,93832.50
2022-10-27T23:43:19.262Z,93829.25
2022-10-27T23:46:03.494Z,93838.63
2022-10-27T23:48:46.661Z,93841.22
2022-10-27T23:51:30.917Z,93837.69
2022-10-27T23:54:13.735Z,93830.69
2022-10-27T23:56:56.679Z,93828.94
2022-10-27T23:59:41.100Z,93824.56
